createdAt,value
2022-08-22T00:07:07.484Z,25
2022-08-22T00:17:09.244Z,24.9
2022-08-22T00:27:11.877Z,24.9
2022-08-22T00:37:14.272Z,24.9
2022-08-22T00:47:16.225Z,24.8
2022-08-22T00:57:18.403Z,24.8
2022-08-22T01:07:20.085Z,24.7
2022-08-22T01:17:22.171Z,24.7
2022-08-22T01:27:23.959Z,24.7
2022-08-22T01:37:26.335Z,24.6
2022-08-22T01:47:28.980Z,24.6
2022-08-22T01:57:30.832Z,24.5
2022-08-22T02:07:33.215Z,24.5
2022-08-22T02:17:35.256Z,24.4
2022-08-22T02:37:39.937Z,24.3
2022-08-22T02:47:41.701Z,24.3
2022-08-22T02:57:44.168Z,24.2
2022-08-22T03:07:46.755Z,24.2
2022-08-22T03:17:49.335Z,24.1
2022-08-22T03:27:51.487Z,24.1
2022-08-22T03:37:53.471Z,24
2022-08-22T03:47:55.789Z,24
2022-08-22T03:57:58.543Z,23.9
2022-08-22T04:08:00.812Z,23.9
2022-08-22T04:18:02.927Z,23.8
2022-08-22T04:28:04.947Z,23.8
2022-08-22T04:38:09.026Z,23.7
2022-08-22T04:48:10.081Z,23.7
2022-08-22T04:58:12.573Z,23.6
2022-08-22T05:08:14.410Z,23.6
2022-08-22T05:28:18.983Z,23.6
2022-08-22T05:38:21.141Z,23.6
2022-08-22T05:48:23.467Z,23.6
2022-08-22T05:58:25.689Z,23.5
2022-08-22T06:08:28.318Z,23.5
2022-08-22T06:18:30.609Z,23.5
2022-08-22T06:28:32.582Z,23.6
2022-08-22T06:38:35.050Z,23.6
2022-08-22T06:48:36.768Z,23.7
2022-08-22T06:58:38.813Z,23.7
2022-08-22T07:08:40.536Z,23.8
2022-08-22T07:18:43.136Z,23.8
2022-08-22T07:28:50.999Z,23.8
2022-08-22T07:38:47.310Z,23.8
2022-08-22T07:49:07.979Z,23.7
2022-08-22T07:58:51.546Z,23.6
2022-08-22T08:08:54.191Z,23.6
2022-08-22T08:18:56.117Z,23.7
2022-08-22T08:28:57.829Z,23.7
2022-08-22T08:38:59.872Z,23.8
2022-08-22T08:49:01.744Z,23.9
2022-08-22T08:59:04.090Z,24
2022-08-22T09:09:06.074Z,24
2022-08-22T09:19:08.323Z,24.2
2022-08-22T09:29:10.899Z,24.3
2022-08-22T09:39:12.729Z,24.3
2022-08-22T09:49:15.202Z,24.4
2022-08-22T09:59:17.544Z,24.4
2022-08-22T10:09:19.639Z,24.5
2022-08-22T10:19:21.500Z,24.5
2022-08-22T10:29:23.962Z,24.6
2022-08-22T10:39:25.996Z,24.6
2022-08-22T10:49:28.777Z,24.7
2022-08-22T10:59:31.037Z,24.7
2022-08-22T11:09:37.001Z,24.8
2022-08-22T11:19:35.526Z,24.8
2022-08-22T11:29:38.082Z,24.9
2022-08-22T11:39:40.656Z,25
2022-08-22T11:59:45.720Z,25.1
2022-08-22T12:09:48.205Z,25.2
2022-08-22T12:20:14.567Z,25.2
2022-08-22T12:29:52.714Z,25.3
2022-08-22T12:39:55.370Z,25.3
2022-08-22T12:59:59.499Z,25.4
2022-08-22T13:20:03.633Z,25.4
2022-08-22T13:30:05.856Z,25.5
2022-08-22T13:30:29.769Z,25.5
2022-08-22T13:40:15.583Z,25.5
2022-08-22T13:50:17.308Z,25.5
2022-08-22T14:00:27.449Z,25.5
2022-08-22T14:10:21.109Z,25.5
2022-08-22T14:20:28.491Z,25.5
2022-08-22T14:30:25.019Z,25.6
2022-08-22T14:40:27.706Z,25.6
2022-08-22T14:50:29.528Z,25.6
2022-08-22T15:00:31.484Z,25.6
2022-08-22T15:10:33.360Z,25.6
2022-08-22T15:20:36.549Z,25.6
2022-08-22T15:30:37.843Z,25.7
2022-08-22T15:40:40.264Z,25.7
2022-08-22T15:50:42.032Z,25.7
2022-08-22T16:10:46.412Z,25.7
2022-08-22T16:20:48.255Z,25.7
2022-08-22T16:30:50.229Z,25.7
2022-08-22T16:50:54.031Z,25.8
2022-08-22T17:00:57.980Z,25.8
2022-08-22T17:10:58.441Z,25.8
2022-08-22T17:21:00.477Z,25.8
2022-08-22T17:31:02.668Z,25.8
2022-08-22T17:41:05.050Z,25.9
2022-08-22T17:51:07.265Z,25.9
2022-08-22T18:01:09.858Z,25.9
2022-08-22T18:11:12.090Z,25.9
2022-08-22T18:21:14.595Z,25.9
2022-08-22T18:31:16.924Z,25.9
2022-08-22T18:41:18.821Z,25.9
2022-08-22T18:51:24.387Z,25.9
2022-08-22T19:01:23.046Z,25.9
2022-08-22T19:11:25.568Z,25.9
2022-08-22T19:21:27.805Z,25.9
2022-08-22T19:31:30.424Z,25.9
2022-08-22T19:41:35.039Z,25.9
2022-08-22T19:51:35.188Z,25.9
2022-08-22T20:01:37.849Z,25.9
2022-08-22T20:11:40.210Z,25.9
2022-08-22T20:21:42.334Z,25.9
2022-08-22T20:31:44.642Z,25.9
2022-08-22T20:41:46.875Z,25.9
2022-08-22T20:51:48.867Z,25.9
2022-08-22T21:01:50.588Z,25.9
2022-08-22T21:11:52.891Z,25.9
2022-08-22T21:31:57.848Z,25.9
2022-08-22T21:52:01.207Z,25.9
2022-08-22T22:12:05.524Z,25.9
2022-08-22T22:32:09.771Z,25.9
2022-08-22T22:42:11.930Z,25.9
2022-08-22T22:52:14.006Z,25.9
2022-08-22T23:02:16.064Z,25.9
2022-08-22T23:12:18.397Z,25.9
2022-08-22T23:22:20.412Z,25.9
2022-08-22T23:32:22.116Z,25.9
2022-08-22T23:42:24.197Z,25.9
2022-08-22T23:52:26.607Z,25.8
